sensor_id;sensor_type;location;lat;lon;timestamp;pressure;altitude;pressure_sealevel;temperature;humidity
6413;BME280;3239;48.714;9.472;2022-07-10T00:01:09;99338.78;;;17.77;100.00
6413;BME280;3239;48.714;9.472;2022-07-10T00:03:36;99324.22;;;17.84;100.00
6413;BME280;3239;48.714;9.472;2022-07-10T00:06:02;99317.94;;;17.83;100.00
6413;BME280;3239;48.714;9.472;2022-07-10T00:08:27;99314.03;;;17.79;100.00
6413;BME280;3239;48.714;9.472;2022-07-10T00:10:53;99311.81;;;17.77;100.00
6413;BME280;3239;48.714;9.472;2022-07-10T00:13:19;99292.19;;;17.75;100.00
6413;BME280;3239;48.714;9.472;2022-07-10T00:15:45;99294.59;;;17.71;100.00
6413;BME280;3239;48.714;9.472;2022-07-10T00:18:10;99295.66;;;17.68;100.00
6413;BME280;3239;48.714;9.472;2022-07-10T00:20:36;99296.75;;;17.65;100.00
6413;BME280;3239;48.714;9.472;2022-07-10T00:23:02;99282.53;;;17.61;100.00
6413;BME280;3239;48.714;9.472;2022-07-10T00:25:28;99291.41;;;17.67;100.00
6413;BME280;3239;48.714;9.472;2022-07-10T00:27:55;99285.28;;;17.61;100.00
6413;BME280;3239;48.714;9.472;2022-07-10T00:30:21;99274.22;;;17.61;100.00
6413;BME280;3239;48.714;9.472;2022-07-10T00:32:47;99276.22;;;17.61;100.00
6413;BME280;3239;48.714;9.472;2022-07-10T00:35:13;99285.06;;;17.59;100.00
6413;BME280;3239;48.714;9.472;2022-07-10T00:37:39;99296.69;;;17.50;100.00
6413;BME280;3239;48.714;9.472;2022-07-10T00:40:07;99312.72;;;17.44;100.00
6413;BME280;3239;48.714;9.472;2022-07-10T00:42:33;99333.97;;;17.49;100.00
6413;BME280;3239;48.714;9.472;2022-07-10T00:44:59;99327.34;;;17.52;100.00
6413;BME280;3239;48.714;9.472;2022-07-10T00:47:26;99333.78;;;17.47;100.00
6413;BME280;3239;48.714;9.472;2022-07-10T00:49:51;99341.56;;;17.49;100.00
6413;BME280;3239;48.714;9.472;2022-07-10T00:52:18;99331.75;;;17.48;100.00
6413;BME280;3239;48.714;9.472;2022-07-10T00:54:48;99332.84;;;17.45;100.00
6413;BME280;3239;48.714;9.472;2022-07-10T00:57:17;99328.59;;;17.44;100.00
6413;BME280;3239;48.714;9.472;2022-07-10T00:59:45;99317.69;;;17.46;100.00
6413;BME280;3239;48.714;9.472;2022-07-10T01:02:11;99310.53;;;17.50;100.00
6413;BME280;3239;48.714;9.472;2022-07-10T01:04:38;99299.22;;;17.48;100.00
6413;BME280;3239;48.714;9.472;2022-07-10T01:07:04;99290.25;;;17.55;100.00
6413;BME280;3239;48.714;9.472;2022-07-10T01:09:31;99283.34;;;17.49;100.00
6413;BME280;3239;48.714;9.472;2022-07-10T01:12:01;99277.41;;;17.45;100.00
6413;BME280;3239;48.714;9.472;2022-07-10T01:14:31;99286.47;;;17.45;100.00
6413;BME280;3239;48.714;9.472;2022-07-10T01:16:58;99288.69;;;17.47;100.00
6413;BME280;3239;48.714;9.472;2022-07-10T01:19:24;99281.47;;;17.44;100.00
6413;BME280;3239;48.714;9.472;2022-07-10T01:21:50;99277.88;;;17.36;100.00
6413;BME280;3239;48.714;9.472;2022-07-10T01:24:16;99284.91;;;17.37;100.00
6413;BME280;3239;48.714;9.472;2022-07-10T01:26:42;99278.75;;;17.31;100.00
6413;BME280;3239;48.714;9.472;2022-07-10T01:29:09;99284.66;;;17.27;100.00
6413;BME280;3239;48.714;9.472;2022-07-10T01:31:36;99287.75;;;17.24;100.00
6413;BME280;3239;48.714;9.472;2022-07-10T01:34:05;99295.47;;;17.18;100.00
6413;BME280;3239;48.714;9.472;2022-07-10T01:36:32;99292.72;;;17.18;100.00
6413;BME280;3239;48.714;9.472;2022-07-10T01:38:59;99281.75;;;17.12;100.00
6413;BME280;3239;48.714;9.472;2022-07-10T01:41:26;99287.63;;;17.09;100.00
6413;BME280;3239;48.714;9.472;2022-07-10T01:43:53;99298.38;;;16.92;100.00
6413;BME280;3239;48.714;9.472;2022-07-10T01:46:19;99324.38;;;16.89;100.00
6413;BME280;3239;48.714;9.472;2022-07-10T01:48:45;99338.16;;;16.81;100.00
6413;BME280;3239;48.714;9.472;2022-07-10T01:51:12;99344.47;;;16.69;100.00
6413;BME280;3239;48.714;9.472;2022-07-10T01:53:40;99349.53;;;16.78;100.00
6413;BME280;3239;48.714;9.472;2022-07-10T01:56:10;99369.13;;;16.80;100.00
6413;BME280;3239;48.714;9.472;2022-07-10T01:58:36;99374.44;;;16.78;100.00
6413;BME280;3239;48.714;9.472;2022-07-10T02:01:04;99378.41;;;16.69;100.00
6413;BME280;3239;48.714;9.472;2022-07-10T02:03:30;99380.22;;;16.67;100.00
6413;BME280;3239;48.714;9.472;2022-07-10T02:06:14;99383.75;;;16.67;100.00
6413;BME280;3239;48.714;9.472;2022-07-10T02:08:40;99389.50;;;16.69;100.00
6413;BME280;3239;48.714;9.472;2022-07-10T02:11:06;99382.19;;;16.46;100.00
6413;BME280;3239;48.714;9.472;2022-07-10T02:13:32;99390.94;;;16.37;100.00
6413;BME280;3239;48.714;9.472;2022-07-10T02:15:58;99397.94;;;16.38;100.00
6413;BME280;3239;48.714;9.472;2022-07-10T02:18:24;99402.09;;;16.31;100.00
6413;BME280;3239;48.714;9.472;2022-07-10T02:20:52;99408.91;;;16.30;100.00
6413;BME280;3239;48.714;9.472;2022-07-10T02:23:18;99421.88;;;16.22;100.00
6413;BME280;3239;48.714;9.472;2022-07-10T02:25:44;99415.19;;;16.18;100.00
6413;BME280;3239;48.714;9.472;2022-07-10T02:28:10;99428.06;;;16.15;100.00
6413;BME280;3239;48.714;9.472;2022-07-10T02:30:36;99424.97;;;16.06;100.00
6413;BME280;3239;48.714;9.472;2022-07-10T02:33:02;99434.00;;;16.06;100.00
6413;BME280;3239;48.714;9.472;2022-07-10T02:35:29;99439.13;;;16.02;100.00
6413;BME280;3239;48.714;9.472;2022-07-10T02:37:54;99445.38;;;16.03;100.00
6413;BME280;3239;48.714;9.472;2022-07-10T02:40:20;99451.22;;;15.99;100.00
6413;BME280;3239;48.714;9.472;2022-07-10T02:42:46;99456.53;;;16.10;100.00
6413;BME280;3239;48.714;9.472;2022-07-10T02:45:12;99463.69;;;16.06;100.00
6413;BME280;3239;48.714;9.472;2022-07-10T02:47:37;99461.44;;;16.04;100.00
6413;BME280;3239;48.714;9.472;2022-07-10T02:50:04;99466.97;;;16.04;100.00
6413;BME280;3239;48.714;9.472;2022-07-10T02:52:30;99468.00;;;16.01;100.00
6413;BME280;3239;48.714;9.472;2022-07-10T02:54:57;99464.97;;;16.05;100.00
6413;BME280;3239;48.714;9.472;2022-07-10T02:57:23;99458.03;;;15.98;100.00
6413;BME280;3239;48.714;9.472;2022-07-10T02:59:49;99455.03;;;15.96;100.00
6413;BME280;3239;48.714;9.472;2022-07-10T03:02:15;99454.06;;;15.94;100.00
6413;BME280;3239;48.714;9.472;2022-07-10T03:04:41;99453.56;;;15.95;100.00
6413;BME280;3239;48.714;9.472;2022-07-10T03:07:07;99446.41;;;15.87;100.00
6413;BME280;3239;48.714;9.472;2022-07-10T03:09:33;99448.88;;;15.90;100.00
6413;BME280;3239;48.714;9.472;2022-07-10T03:11:59;99450.03;;;15.82;100.00
6413;BME280;3239;48.714;9.472;2022-07-10T03:14:26;99447.78;;;15.80;100.00
6413;BME280;3239;48.714;9.472;2022-07-10T03:16:52;99446.16;;;15.72;100.00
6413;BME280;3239;48.714;9.472;2022-07-10T03:19:18;99439.28;;;15.65;100.00
6413;BME280;3239;48.714;9.472;2022-07-10T03:21:44;99443.09;;;15.75;100.00
6413;BME280;3239;48.714;9.472;2022-07-10T03:24:11;99441.66;;;15.87;100.00
6413;BME280;3239;48.714;9.472;2022-07-10T03:26:37;99442.81;;;15.92;100.00
6413;BME280;3239;48.714;9.472;2022-07-10T03:29:03;99430.91;;;15.97;100.00
6413;BME280;3239;48.714;9.472;2022-07-10T03:31:28;99417.19;;;15.78;100.00
6413;BME280;3239;48.714;9.472;2022-07-10T03:33:54;99417.94;;;15.79;100.00
6413;BME280;3239;48.714;9.472;2022-07-10T03:36:20;99409.84;;;15.81;100.00
6413;BME280;3239;48.714;9.472;2022-07-10T03:38:46;99408.13;;;15.78;100.00
6413;BME280;3239;48.714;9.472;2022-07-10T03:41:13;99411.00;;;15.85;100.00
6413;BME280;3239;48.714;9.472;2022-07-10T03:43:39;99395.81;;;15.79;100.00
6413;BME280;3239;48.714;9.472;2022-07-10T03:46:05;99388.59;;;15.76;100.00
6413;BME280;3239;48.714;9.472;2022-07-10T03:48:31;99384.78;;;15.79;100.00
6413;BME280;3239;48.714;9.472;2022-07-10T03:50:58;99378.69;;;15.80;100.00
6413;BME280;3239;48.714;9.472;2022-07-10T03:53:24;99370.94;;;15.79;100.00
6413;BME280;3239;48.714;9.472;2022-07-10T03:55:50;99366.25;;;15.87;100.00
6413;BME280;3239;48.714;9.472;2022-07-10T03:58:16;99362.13;;;15.93;100.00
6413;BME280;3239;48.714;9.472;2022-07-10T04:00:42;99346.81;;;15.79;100.00
6413;BME280;3239;48.714;9.472;2022-07-10T04:03:09;99352.47;;;15.74;100.00
6413;BME280;3239;48.714;9.472;2022-07-10T04:05:35;99351.69;;;15.73;100.00
6413;BME280;3239;48.714;9.472;2022-07-10T04:08:02;99359.25;;;15.73;100.00
6413;BME280;3239;48.714;9.472;2022-07-10T04:10:30;99352.34;;;15.79;100.00
6413;BME280;3239;48.714;9.472;2022-07-10T04:12:59;99343.94;;;15.72;100.00
6413;BME280;3239;48.714;9.472;2022-07-10T04:15:26;99336.09;;;15.63;100.00
6413;BME280;3239;48.714;9.472;2022-07-10T04:17:52;99347.53;;;15.67;100.00
6413;BME280;3239;48.714;9.472;2022-07-10T04:20:20;99345.41;;;15.60;100.00
6413;BME280;3239;48.714;9.472;2022-07-10T04:22:46;99341.59;;;15.63;100.00
6413;BME280;3239;48.714;9.472;2022-07-10T04:25:13;99343.72;;;15.70;100.00
6413;BME280;3239;48.714;9.472;2022-07-10T04:27:39;99343.09;;;15.77;100.00
6413;BME280;3239;48.714;9.472;2022-07-10T04:30:06;99345.13;;;15.76;100.00
6413;BME280;3239;48.714;9.472;2022-07-10T04:32:32;99335.56;;;15.77;100.00
6413;BME280;3239;48.714;9.472;2022-07-10T04:34:58;99337.16;;;15.86;100.00
6413;BME280;3239;48.714;9.472;2022-07-10T04:37:24;99328.19;;;15.93;100.00
6413;BME280;3239;48.714;9.472;2022-07-10T04:39:50;99326.81;;;15.99;100.00
6413;BME280;3239;48.714;9.472;2022-07-10T04:42:16;99328.31;;;16.00;100.00
6413;BME280;3239;48.714;9.472;2022-07-10T04:44:42;99320.78;;;16.01;100.00
6413;BME280;3239;48.714;9.472;2022-07-10T04:47:07;99317.56;;;15.97;100.00
6413;BME280;3239;48.714;9.472;2022-07-10T04:49:33;99312.91;;;16.05;100.00
6413;BME280;3239;48.714;9.472;2022-07-10T04:52:00;99304.69;;;16.12;100.00
6413;BME280;3239;48.714;9.472;2022-07-10T04:54:26;99304.69;;;16.12;100.00
6413;BME280;3239;48.714;9.472;2022-07-10T04:56:52;99307.13;;;16.16;100.00
6413;BME280;3239;48.714;9.472;2022-07-10T04:59:17;99290.00;;;16.17;100.00
6413;BME280;3239;48.714;9.472;2022-07-10T05:01:43;99279.50;;;16.16;100.00
6413;BME280;3239;48.714;9.472;2022-07-10T05:04:10;99269.41;;;16.05;100.00
6413;BME280;3239;48.714;9.472;2022-07-10T05:06:36;99271.63;;;15.94;100.00
6413;BME280;3239;48.714;9.472;2022-07-10T05:09:02;99278.72;;;16.15;100.00
6413;BME280;3239;48.714;9.472;2022-07-10T05:11:28;99273.81;;;16.34;100.00
6413;BME280;3239;48.714;9.472;2022-07-10T05:13:54;99259.88;;;16.27;100.00
6413;BME280;3239;48.714;9.472;2022-07-10T05:16:20;99258.16;;;16.37;100.00
6413;BME280;3239;48.714;9.472;2022-07-10T05:18:46;99238.81;;;16.24;100.00
6413;BME280;3239;48.714;9.472;2022-07-10T05:21:12;99237.00;;;16.26;100.00
6413;BME280;3239;48.714;9.472;2022-07-10T05:23:39;99231.94;;;16.17;100.00
6413;BME280;3239;48.714;9.472;2022-07-10T05:26:05;99236.72;;;16.17;100.00
6413;BME280;3239;48.714;9.472;2022-07-10T05:28:31;99253.31;;;16.17;100.00
6413;BME280;3239;48.714;9.472;2022-07-10T05:30:57;99255.13;;;16.14;100.00
6413;BME280;3239;48.714;9.472;2022-07-10T05:33:23;99248.59;;;16.25;100.00
6413;BME280;3239;48.714;9.472;2022-07-10T05:35:49;99249.09;;;16.36;100.00
6413;BME280;3239;48.714;9.472;2022-07-10T05:38:15;99235.00;;;16.27;100.00
6413;BME280;3239;48.714;9.472;2022-07-10T05:40:41;99237.09;;;16.34;100.00
6413;BME280;3239;48.714;9.472;2022-07-10T05:43:06;99236.75;;;16.50;100.00
6413;BME280;3239;48.714;9.472;2022-07-10T05:45:32;99239.19;;;16.54;100.00
6413;BME280;3239;48.714;9.472;2022-07-10T05:47:58;99220.81;;;16.64;100.00
6413;BME280;3239;48.714;9.472;2022-07-10T05:50:24;99207.94;;;16.66;100.00
6413;BME280;3239;48.714;9.472;2022-07-10T05:52:50;99188.72;;;16.89;100.00
6413;BME280;3239;48.714;9.472;2022-07-10T05:55:15;99182.28;;;16.86;100.00
6413;BME280;3239;48.714;9.472;2022-07-10T05:57:41;99189.59;;;17.04;100.00
6413;BME280;3239;48.714;9.472;2022-07-10T06:00:09;99150.13;;;17.11;100.00
6413;BME280;3239;48.714;9.472;2022-07-10T06:02:35;99134.03;;;17.02;100.00
6413;BME280;3239;48.714;9.472;2022-07-10T06:05:01;99124.31;;;17.16;100.00
6413;BME280;3239;48.714;9.472;2022-07-10T06:07:27;99120.06;;;17.15;100.00
6413;BME280;3239;48.714;9.472;2022-07-10T06:09:54;99113.09;;;17.22;100.00
6413;BME280;3239;48.714;9.472;2022-07-10T06:12:20;99078.69;;;17.45;100.00
6413;BME280;3239;48.714;9.472;2022-07-10T06:14:46;99051.69;;;17.46;100.00
6413;BME280;3239;48.714;9.472;2022-07-10T06:17:12;99039.94;;;17.75;100.00
6413;BME280;3239;48.714;9.472;2022-07-10T06:19:38;99033.69;;;17.75;100.00
6413;BME280;3239;48.714;9.472;2022-07-10T06:22:04;99032.72;;;17.65;100.00
6413;BME280;3239;48.714;9.472;2022-07-10T06:24:48;99033.06;;;17.46;100.00
6413;BME280;3239;48.714;9.472;2022-07-10T06:27:14;99029.97;;;17.65;100.00
6413;BME280;3239;48.714;9.472;2022-07-10T06:29:39;99063.34;;;17.52;100.00
6413;BME280;3239;48.714;9.472;2022-07-10T06:32:06;99077.34;;;17.39;100.00
6413;BME280;3239;48.714;9.472;2022-07-10T06:34:32;99077.56;;;17.48;100.00
6413;BME280;3239;48.714;9.472;2022-07-10T06:36:57;99071.50;;;17.57;100.00
6413;BME280;3239;48.714;9.472;2022-07-10T06:39:23;99079.25;;;17.51;100.00
6413;BME280;3239;48.714;9.472;2022-07-10T06:41:49;99076.88;;;17.55;100.00
6413;BME280;3239;48.714;9.472;2022-07-10T06:44:15;99079.28;;;17.59;100.00
6413;BME280;3239;48.714;9.472;2022-07-10T06:46:41;99059.66;;;17.49;100.00
6413;BME280;3239;48.714;9.472;2022-07-10T06:49:07;99031.63;;;17.17;100.00
6413;BME280;3239;48.714;9.472;2022-07-10T06:51:34;99008.47;;;17.43;100.00
6413;BME280;3239;48.714;9.472;2022-07-10T06:54:00;99016.09;;;17.57;100.00
6413;BME280;3239;48.714;9.472;2022-07-10T06:56:26;99010.34;;;17.48;100.00
6413;BME280;3239;48.714;9.472;2022-07-10T06:58:52;99002.25;;;17.80;100.00
6413;BME280;3239;48.714;9.472;2022-07-10T07:01:18;98988.97;;;17.93;100.00
6413;BME280;3239;48.714;9.472;2022-07-10T07:03:44;98981.94;;;18.00;100.00
6413;BME280;3239;48.714;9.472;2022-07-10T07:06:10;98975.47;;;17.90;100.00
6413;BME280;3239;48.714;9.472;2022-07-10T07:08:35;98976.75;;;18.11;100.00
6413;BME280;3239;48.714;9.472;2022-07-10T07:11:02;98971.56;;;18.45;100.00
6413;BME280;3239;48.714;9.472;2022-07-10T07:13:28;98968.03;;;18.52;100.00
6413;BME280;3239;48.714;9.472;2022-07-10T07:15:54;98968.19;;;18.47;100.00
6413;BME280;3239;48.714;9.472;2022-07-10T07:18:27;98973.16;;;18.71;100.00
6413;BME280;3239;48.714;9.472;2022-07-10T07:21:01;98972.38;;;18.78;100.00
6413;BME280;3239;48.714;9.472;2022-07-10T07:23:45;98965.50;;;19.26;100.00
6413;BME280;3239;48.714;9.472;2022-07-10T07:26:11;98951.38;;;18.45;100.00
6413;BME280;3239;48.714;9.472;2022-07-10T07:28:37;98975.78;;;18.54;100.00
6413;BME280;3239;48.714;9.472;2022-07-10T07:31:03;98970.00;;;18.67;100.00
6413;BME280;3239;48.714;9.472;2022-07-10T07:33:29;98951.28;;;18.82;100.00
6413;BME280;3239;48.714;9.472;2022-07-10T07:35:55;98949.16;;;18.51;100.00
6413;BME280;3239;48.714;9.472;2022-07-10T07:38:20;98962.63;;;18.62;100.00
6413;BME280;3239;48.714;9.472;2022-07-10T07:40:46;98964.31;;;18.50;100.00
6413;BME280;3239;48.714;9.472;2022-07-10T07:43:13;98961.50;;;18.72;100.00
6413;BME280;3239;48.714;9.472;2022-07-10T07:45:39;98967.38;;;19.23;100.00
6413;BME280;3239;48.714;9.472;2022-07-10T07:48:05;98951.19;;;18.97;100.00
6413;BME280;3239;48.714;9.472;2022-07-10T07:50:35;98961.63;;;19.29;100.00
6413;BME280;3239;48.714;9.472;2022-07-10T07:53:03;98950.13;;;19.57;100.00
6413;BME280;3239;48.714;9.472;2022-07-10T07:55:32;98927.47;;;19.60;100.00
6413;BME280;3239;48.714;9.472;2022-07-10T07:57:58;98910.22;;;19.86;100.00
6413;BME280;3239;48.714;9.472;2022-07-10T08:00:27;98917.59;;;20.50;100.00
6413;BME280;3239;48.714;9.472;2022-07-10T08:02:55;98903.09;;;20.51;100.00
6413;BME280;3239;48.714;9.472;2022-07-10T08:05:22;98880.00;;;20.07;100.00
6413;BME280;3239;48.714;9.472;2022-07-10T08:07:53;98906.25;;;20.82;100.00
6413;BME280;3239;48.714;9.472;2022-07-10T08:10:23;98887.97;;;20.71;100.00
6413;BME280;3239;48.714;9.472;2022-07-10T08:12:49;98884.97;;;20.77;100.00
6413;BME280;3239;48.714;9.472;2022-07-10T08:15:18;98891.91;;;20.85;100.00
6413;BME280;3239;48.714;9.472;2022-07-10T08:17:53;98878.63;;;21.56;100.00
6413;BME280;3239;48.714;9.472;2022-07-10T08:20:20;98880.97;;;22.05;100.00
6413;BME280;3239;48.714;9.472;2022-07-10T08:22:46;98869.50;;;21.55;100.00
6413;BME280;3239;48.714;9.472;2022-07-10T08:25:12;98876.00;;;20.95;100.00
6413;BME280;3239;48.714;9.472;2022-07-10T08:27:39;98880.09;;;21.21;100.00
6413;BME280;3239;48.714;9.472;2022-07-10T08:30:06;98865.94;;;21.36;100.00
6413;BME280;3239;48.714;9.472;2022-07-10T08:32:35;98857.34;;;22.44;100.00
6413;BME280;3239;48.714;9.472;2022-07-10T08:35:03;98852.63;;;22.18;98.79
6413;BME280;3239;48.714;9.472;2022-07-10T08:37:29;98859.22;;;22.22;100.00
6413;BME280;3239;48.714;9.472;2022-07-10T08:39:54;98860.06;;;21.77;99.49
6413;BME280;3239;48.714;9.472;2022-07-10T08:42:21;98850.59;;;21.54;100.00
6413;BME280;3239;48.714;9.472;2022-07-10T08:44:48;98861.41;;;22.90;97.25
6413;BME280;3239;48.714;9.472;2022-07-10T08:47:13;98846.00;;;22.61;93.78
6413;BME280;3239;48.714;9.472;2022-07-10T08:49:47;98841.66;;;22.98;91.71
6413;BME280;3239;48.714;9.472;2022-07-10T08:52:20;98843.34;;;23.31;87.27
6413;BME280;3239;48.714;9.472;2022-07-10T08:54:48;98841.88;;;23.30;85.18
6413;BME280;3239;48.714;9.472;2022-07-10T08:57:15;98838.34;;;22.61;87.86
6413;BME280;3239;48.714;9.472;2022-07-10T08:59:43;98837.94;;;22.08;84.82
6413;BME280;3239;48.714;9.472;2022-07-10T09:02:08;98845.25;;;22.32;91.88
6413;BME280;3239;48.714;9.472;2022-07-10T09:04:34;98845.03;;;22.96;85.62
6413;BME280;3239;48.714;9.472;2022-07-10T09:07:00;98849.13;;;23.05;79.95
6413;BME280;3239;48.714;9.472;2022-07-10T09:09:26;98852.25;;;23.70;76.86
6413;BME280;3239;48.714;9.472;2022-07-10T09:11:58;98853.53;;;23.48;70.22
6413;BME280;3239;48.714;9.472;2022-07-10T09:14:26;98846.84;;;23.93;74.44
6413;BME280;3239;48.714;9.472;2022-07-10T09:16:55;98860.41;;;23.26;75.23
6413;BME280;3239;48.714;9.472;2022-07-10T09:19:27;98852.06;;;23.47;74.17
6413;BME280;3239;48.714;9.472;2022-07-10T09:22:06;98867.75;;;22.72;79.59
6413;BME280;3239;48.714;9.472;2022-07-10T09:24:44;98869.66;;;22.12;83.92
6413;BME280;3239;48.714;9.472;2022-07-10T09:27:13;98872.56;;;21.95;86.80
6413;BME280;3239;48.714;9.472;2022-07-10T09:29:53;98863.34;;;22.31;84.07
6413;BME280;3239;48.714;9.472;2022-07-10T09:32:24;98864.19;;;21.86;86.18
6413;BME280;3239;48.714;9.472;2022-07-10T09:34:53;98867.78;;;21.60;89.35
6413;BME280;3239;48.714;9.472;2022-07-10T09:37:40;98856.59;;;22.34;86.55
6413;BME280;3239;48.714;9.472;2022-07-10T09:40:08;98867.19;;;23.13;84.07
6413;BME280;3239;48.714;9.472;2022-07-10T09:42:43;98872.44;;;23.99;76.41
6413;BME280;3239;48.714;9.472;2022-07-10T09:47:53;98862.09;;;23.50;78.31
6413;BME280;3239;48.714;9.472;2022-07-10T09:50:29;98876.13;;;22.43;76.93
6413;BME280;3239;48.714;9.472;2022-07-10T09:53:08;98870.66;;;21.88;85.36
6413;BME280;3239;48.714;9.472;2022-07-10T09:55:38;98870.94;;;21.47;90.60
6413;BME280;3239;48.714;9.472;2022-07-10T09:58:06;98868.63;;;22.27;91.53
6413;BME280;3239;48.714;9.472;2022-07-10T10:00:38;98860.03;;;23.71;81.75
6413;BME280;3239;48.714;9.472;2022-07-10T10:03:09;98855.00;;;22.50;71.81
6413;BME280;3239;48.714;9.472;2022-07-10T10:05:37;98862.19;;;22.53;75.53
6413;BME280;3239;48.714;9.472;2022-07-10T10:08:19;98857.78;;;21.66;77.75
6413;BME280;3239;48.714;9.472;2022-07-10T10:10:47;98865.41;;;22.02;80.76
6413;BME280;3239;48.714;9.472;2022-07-10T10:13:22;98859.47;;;21.79;83.10
6413;BME280;3239;48.714;9.472;2022-07-10T10:15:51;98857.47;;;21.98;83.55
6413;BME280;3239;48.714;9.472;2022-07-10T10:18:22;98863.09;;;21.26;90.46
6413;BME280;3239;48.714;9.472;2022-07-10T10:20:49;98861.28;;;21.93;80.31
6413;BME280;3239;48.714;9.472;2022-07-10T10:23:18;98852.19;;;22.50;75.38
6413;BME280;3239;48.714;9.472;2022-07-10T10:25:54;98851.41;;;24.09;68.44
6413;BME280;3239;48.714;9.472;2022-07-10T10:28:22;98842.69;;;23.94;64.83
6413;BME280;3239;48.714;9.472;2022-07-10T10:31:08;98844.31;;;23.97;65.12
6413;BME280;3239;48.714;9.472;2022-07-10T10:36:08;98844.84;;;23.23;65.80
6413;BME280;3239;48.714;9.472;2022-07-10T10:41:41;98849.38;;;22.69;63.53
6413;BME280;3239;48.714;9.472;2022-07-10T10:49:23;98840.28;;;24.00;58.18
6413;BME280;3239;48.714;9.472;2022-07-10T10:59:57;98836.50;;;23.04;61.31
6413;BME280;3239;48.714;9.472;2022-07-10T11:02:29;98846.31;;;22.55;63.17
6413;BME280;3239;48.714;9.472;2022-07-10T11:08:03;98833.66;;;22.73;61.42
6413;BME280;3239;48.714;9.472;2022-07-10T11:10:45;98828.81;;;22.64;58.74
6413;BME280;3239;48.714;9.472;2022-07-10T11:13:16;98829.16;;;22.99;58.05
6413;BME280;3239;48.714;9.472;2022-07-10T11:15:49;98825.81;;;22.91;60.99
6413;BME280;3239;48.714;9.472;2022-07-10T11:18:20;98830.44;;;22.67;57.91
6413;BME280;3239;48.714;9.472;2022-07-10T11:20:54;98828.22;;;22.09;61.66
6413;BME280;3239;48.714;9.472;2022-07-10T11:29:08;98818.84;;;22.33;62.73
6413;BME280;3239;48.714;9.472;2022-07-10T11:31:35;98813.50;;;22.75;64.29
6413;BME280;3239;48.714;9.472;2022-07-10T11:34:06;98815.97;;;22.80;63.19
6413;BME280;3239;48.714;9.472;2022-07-10T11:36:34;98821.75;;;22.35;61.61
6413;BME280;3239;48.714;9.472;2022-07-10T11:39:05;98820.75;;;22.49;60.76
6413;BME280;3239;48.714;9.472;2022-07-10T11:41:32;98822.78;;;22.39;63.00
6413;BME280;3239;48.714;9.472;2022-07-10T11:44:03;98820.59;;;22.57;64.11
6413;BME280;3239;48.714;9.472;2022-07-10T11:46:34;98813.97;;;22.52;61.61
6413;BME280;3239;48.714;9.472;2022-07-10T11:49:05;98803.88;;;22.87;63.05
6413;BME280;3239;48.714;9.472;2022-07-10T11:51:34;98807.16;;;23.24;64.48
6413;BME280;3239;48.714;9.472;2022-07-10T11:56:55;98811.59;;;23.69;62.66
6413;BME280;3239;48.714;9.472;2022-07-10T11:59:26;98811.59;;;23.69;59.38
6413;BME280;3239;48.714;9.472;2022-07-10T12:01:54;98810.97;;;22.79;64.34
6413;BME280;3239;48.714;9.472;2022-07-10T12:04:23;98816.28;;;23.15;61.36
6413;BME280;3239;48.714;9.472;2022-07-10T12:06:53;98811.25;;;23.32;61.30
6413;BME280;3239;48.714;9.472;2022-07-10T12:09:23;98819.50;;;23.30;60.28
6413;BME280;3239;48.714;9.472;2022-07-10T12:12:04;98809.53;;;22.68;59.65
6413;BME280;3239;48.714;9.472;2022-07-10T12:14:32;98815.28;;;22.42;64.49
6413;BME280;3239;48.714;9.472;2022-07-10T12:16:58;98810.75;;;22.08;64.06
6413;BME280;3239;48.714;9.472;2022-07-10T12:19:31;98809.88;;;22.25;61.85
6413;BME280;3239;48.714;9.472;2022-07-10T12:22:02;98805.91;;;22.18;61.73
6413;BME280;3239;48.714;9.472;2022-07-10T12:24:28;98809.88;;;22.53;62.37
6413;BME280;3239;48.714;9.472;2022-07-10T12:26:54;98794.00;;;21.80;59.75
6413;BME280;3239;48.714;9.472;2022-07-10T12:29:30;98814.69;;;22.43;67.58
6413;BME280;3239;48.714;9.472;2022-07-10T12:31:58;98822.50;;;21.88;66.89
6413;BME280;3239;48.714;9.472;2022-07-10T12:34:38;98818.97;;;22.35;67.56
6413;BME280;3239;48.714;9.472;2022-07-10T12:37:13;98817.22;;;22.30;65.90
6413;BME280;3239;48.714;9.472;2022-07-10T12:39:51;98809.38;;;22.66;62.75
6413;BME280;3239;48.714;9.472;2022-07-10T12:42:32;98817.97;;;22.99;66.92
6413;BME280;3239;48.714;9.472;2022-07-10T12:45:14;98811.00;;;22.69;64.74
6413;BME280;3239;48.714;9.472;2022-07-10T12:47:48;98819.84;;;22.47;62.19
6413;BME280;3239;48.714;9.472;2022-07-10T12:50:15;98816.63;;;22.22;65.02
6413;BME280;3239;48.714;9.472;2022-07-10T12:52:45;98803.63;;;22.74;67.05
6413;BME280;3239;48.714;9.472;2022-07-10T12:55:20;98815.84;;;22.69;62.07
6413;BME280;3239;48.714;9.472;2022-07-10T12:57:58;98809.63;;;22.80;66.06
6413;BME280;3239;48.714;9.472;2022-07-10T13:00:30;98809.44;;;22.97;61.60
6413;BME280;3239;48.714;9.472;2022-07-10T13:03:04;98796.81;;;22.86;63.17
6413;BME280;3239;48.714;9.472;2022-07-10T13:05:41;98808.09;;;22.48;61.36
6413;BME280;3239;48.714;9.472;2022-07-10T13:08:21;98798.03;;;22.83;59.51
6413;BME280;3239;48.714;9.472;2022-07-10T13:10:54;98811.88;;;22.72;56.67
6413;BME280;3239;48.714;9.472;2022-07-10T13:13:20;98802.06;;;22.23;57.44
6413;BME280;3239;48.714;9.472;2022-07-10T13:15:47;98812.50;;;22.42;61.55
6413;BME280;3239;48.714;9.472;2022-07-10T13:18:18;98811.78;;;23.00;62.12
6413;BME280;3239;48.714;9.472;2022-07-10T13:20:56;98808.34;;;22.81;56.13
6413;BME280;3239;48.714;9.472;2022-07-10T13:23:24;98807.91;;;23.15;59.17
6413;BME280;3239;48.714;9.472;2022-07-10T13:25:52;98806.50;;;22.95;56.40
6413;BME280;3239;48.714;9.472;2022-07-10T13:28:18;98803.28;;;22.89;53.23
6413;BME280;3239;48.714;9.472;2022-07-10T13:30:45;98803.34;;;23.19;55.65
6413;BME280;3239;48.714;9.472;2022-07-10T13:33:11;98807.78;;;23.13;53.92
6413;BME280;3239;48.714;9.472;2022-07-10T13:35:37;98813.69;;;23.38;54.56
6413;BME280;3239;48.714;9.472;2022-07-10T13:38:04;98807.03;;;23.43;54.88
6413;BME280;3239;48.714;9.472;2022-07-10T13:40:33;98813.44;;;22.94;53.42
6413;BME280;3239;48.714;9.472;2022-07-10T13:43:00;98818.38;;;22.65;54.70
6413;BME280;3239;48.714;9.472;2022-07-10T13:45:26;98803.53;;;22.53;52.52
6413;BME280;3239;48.714;9.472;2022-07-10T13:47:57;98814.88;;;22.26;55.95
6413;BME280;3239;48.714;9.472;2022-07-10T13:50:24;98806.06;;;22.49;52.75
6413;BME280;3239;48.714;9.472;2022-07-10T13:52:50;98809.28;;;22.95;56.31